sensor_id;sensor_type;location;lat;lon;timestamp;P1;durP1;ratioP1;P2;durP2;ratioP2
54539;SDS011;40438;52.992;18.604;2022-08-20T00:00:15;13.52;;;7.07;;
54539;SDS011;40438;52.992;18.604;2022-08-20T00:02:44;13.13;;;7.00;;
54539;SDS011;40438;52.992;18.604;2022-08-20T00:05:12;16.20;;;7.43;;
54539;SDS011;40438;52.992;18.604;2022-08-20T00:07:40;12.40;;;6.75;;
54539;SDS011;40438;52.992;18.604;2022-08-20T00:10:06;14.18;;;7.43;;
54539;SDS011;40438;52.992;18.604;2022-08-20T00:12:34;13.93;;;7.90;;
54539;SDS011;40438;52.992;18.604;2022-08-20T00:15:00;13.65;;;6.95;;
54539;SDS011;40438;52.992;18.604;2022-08-20T00:17:26;14.68;;;7.25;;
54539;SDS011;40438;52.992;18.604;2022-08-20T00:19:52;12.32;;;7.13;;
54539;SDS011;40438;52.992;18.604;2022-08-20T00:22:18;13.77;;;8.85;;
54539;SDS011;40438;52.992;18.604;2022-08-20T00:24:45;14.75;;;7.60;;
54539;SDS011;40438;52.992;18.604;2022-08-20T00:27:10;11.73;;;7.00;;
54539;SDS011;40438;52.992;18.604;2022-08-20T00:29:36;13.27;;;7.38;;
54539;SDS011;40438;52.992;18.604;2022-08-20T00:32:02;12.68;;;6.55;;
54539;SDS011;40438;52.992;18.604;2022-08-20T00:34:28;16.63;;;7.47;;
54539;SDS011;40438;52.992;18.604;2022-08-20T00:36:54;15.38;;;7.22;;
54539;SDS011;40438;52.992;18.604;2022-08-20T00:39:20;12.25;;;6.55;;
54539;SDS011;40438;52.992;18.604;2022-08-20T00:41:47;17.08;;;7.07;;
54539;SDS011;40438;52.992;18.604;2022-08-20T00:44:14;15.07;;;6.68;;
54539;SDS011;40438;52.992;18.604;2022-08-20T00:46:42;17.02;;;6.90;;
54539;SDS011;40438;52.992;18.604;2022-08-20T00:49:11;13.07;;;5.85;;
54539;SDS011;40438;52.992;18.604;2022-08-20T00:51:41;14.00;;;6.40;;
54539;SDS011;40438;52.992;18.604;2022-08-20T00:54:10;12.95;;;7.05;;
54539;SDS011;40438;52.992;18.604;2022-08-20T00:56:40;14.63;;;7.32;;
54539;SDS011;40438;52.992;18.604;2022-08-20T00:59:09;15.07;;;6.30;;
54539;SDS011;40438;52.992;18.604;2022-08-20T01:01:39;18.70;;;6.93;;
54539;SDS011;40438;52.992;18.604;2022-08-20T01:04:06;13.73;;;6.13;;
54539;SDS011;40438;52.992;18.604;2022-08-20T01:06:32;17.30;;;5.90;;
54539;SDS011;40438;52.992;18.604;2022-08-20T01:08:58;11.27;;;5.75;;
54539;SDS011;40438;52.992;18.604;2022-08-20T01:11:24;13.98;;;5.60;;
54539;SDS011;40438;52.992;18.604;2022-08-20T01:13:50;11.77;;;4.65;;
54539;SDS011;40438;52.992;18.604;2022-08-20T01:16:18;12.27;;;5.25;;
54539;SDS011;40438;52.992;18.604;2022-08-20T01:18:49;13.35;;;4.93;;
54539;SDS011;40438;52.992;18.604;2022-08-20T01:21:16;17.60;;;6.07;;
54539;SDS011;40438;52.992;18.604;2022-08-20T01:23:46;13.00;;;6.20;;
54539;SDS011;40438;52.992;18.604;2022-08-20T01:26:20;15.07;;;5.53;;
54539;SDS011;40438;52.992;18.604;2022-08-20T01:28:49;13.00;;;5.45;;
54539;SDS011;40438;52.992;18.604;2022-08-20T01:31:18;15.48;;;5.07;;
54539;SDS011;40438;52.992;18.604;2022-08-20T01:33:47;10.25;;;4.97;;
54539;SDS011;40438;52.992;18.604;2022-08-20T01:36:15;14.75;;;5.72;;
54539;SDS011;40438;52.992;18.604;2022-08-20T01:38:42;17.10;;;5.10;;
54539;SDS011;40438;52.992;18.604;2022-08-20T01:44:05;16.83;;;4.40;;
54539;SDS011;40438;52.992;18.604;2022-08-20T01:46:33;10.25;;;4.18;;
54539;SDS011;40438;52.992;18.604;2022-08-20T01:49:05;12.75;;;4.05;;
54539;SDS011;40438;52.992;18.604;2022-08-20T01:51:34;13.40;;;4.60;;
54539;SDS011;40438;52.992;18.604;2022-08-20T01:54:00;12.25;;;4.55;;
54539;SDS011;40438;52.992;18.604;2022-08-20T01:56:28;14.63;;;5.35;;
54539;SDS011;40438;52.992;18.604;2022-08-20T01:58:58;10.80;;;5.18;;
54539;SDS011;40438;52.992;18.604;2022-08-20T02:01:26;12.43;;;5.10;;
54539;SDS011;40438;52.992;18.604;2022-08-20T02:03:55;11.77;;;4.97;;
54539;SDS011;40438;52.992;18.604;2022-08-20T02:06:21;9.48;;;5.15;;
54539;SDS011;40438;52.992;18.604;2022-08-20T02:08:48;13.27;;;4.68;;
54539;SDS011;40438;52.992;18.604;2022-08-20T02:11:14;13.25;;;5.35;;
54539;SDS011;40438;52.992;18.604;2022-08-20T02:13:40;14.35;;;5.35;;
54539;SDS011;40438;52.992;18.604;2022-08-20T02:16:07;9.63;;;5.20;;
54539;SDS011;40438;52.992;18.604;2022-08-20T02:18:33;13.27;;;6.43;;
54539;SDS011;40438;52.992;18.604;2022-08-20T02:20:59;13.75;;;5.60;;
54539;SDS011;40438;52.992;18.604;2022-08-20T02:23:25;13.48;;;6.05;;
54539;SDS011;40438;52.992;18.604;2022-08-20T02:25:50;11.80;;;5.40;;
54539;SDS011;40438;52.992;18.604;2022-08-20T02:28:17;15.30;;;6.03;;
54539;SDS011;40438;52.992;18.604;2022-08-20T02:30:44;11.13;;;5.75;;
54539;SDS011;40438;52.992;18.604;2022-08-20T02:33:14;12.65;;;6.20;;
54539;SDS011;40438;52.992;18.604;2022-08-20T02:35:41;11.75;;;5.30;;
54539;SDS011;40438;52.992;18.604;2022-08-20T02:38:10;11.32;;;5.50;;
54539;SDS011;40438;52.992;18.604;2022-08-20T02:40:36;10.50;;;6.10;;
54539;SDS011;40438;52.992;18.604;2022-08-20T02:43:02;14.73;;;6.25;;
54539;SDS011;40438;52.992;18.604;2022-08-20T02:45:29;14.57;;;6.22;;
54539;SDS011;40438;52.992;18.604;2022-08-20T02:47:57;11.93;;;5.78;;
54539;SDS011;40438;52.992;18.604;2022-08-20T02:50:24;10.50;;;6.28;;
54539;SDS011;40438;52.992;18.604;2022-08-20T02:52:51;12.52;;;5.93;;
54539;SDS011;40438;52.992;18.604;2022-08-20T02:55:18;11.35;;;5.65;;
54539;SDS011;40438;52.992;18.604;2022-08-20T02:57:44;11.75;;;6.20;;
54539;SDS011;40438;52.992;18.604;2022-08-20T03:00:11;11.88;;;6.97;;
54539;SDS011;40438;52.992;18.604;2022-08-20T03:02:41;8.40;;;5.88;;
54539;SDS011;40438;52.992;18.604;2022-08-20T03:05:07;10.13;;;5.90;;
54539;SDS011;40438;52.992;18.604;2022-08-20T03:07:40;12.27;;;6.32;;
54539;SDS011;40438;52.992;18.604;2022-08-20T03:10:07;14.13;;;6.38;;
54539;SDS011;40438;52.992;18.604;2022-08-20T03:12:33;13.52;;;5.93;;
54539;SDS011;40438;52.992;18.604;2022-08-20T03:14:59;10.82;;;6.47;;
54539;SDS011;40438;52.992;18.604;2022-08-20T03:17:24;8.35;;;5.07;;
54539;SDS011;40438;52.992;18.604;2022-08-20T03:19:50;9.70;;;6.40;;
54539;SDS011;40438;52.992;18.604;2022-08-20T03:22:16;9.23;;;5.72;;
54539;SDS011;40438;52.992;18.604;2022-08-20T03:24:43;10.57;;;5.80;;
54539;SDS011;40438;52.992;18.604;2022-08-20T03:27:09;10.88;;;6.00;;
54539;SDS011;40438;52.992;18.604;2022-08-20T03:29:36;9.70;;;5.60;;
54539;SDS011;40438;52.992;18.604;2022-08-20T03:32:02;13.57;;;5.82;;
54539;SDS011;40438;52.992;18.604;2022-08-20T03:34:28;9.90;;;6.00;;
54539;SDS011;40438;52.992;18.604;2022-08-20T03:36:54;10.98;;;5.70;;
54539;SDS011;40438;52.992;18.604;2022-08-20T03:39:20;17.83;;;5.68;;
54539;SDS011;40438;52.992;18.604;2022-08-20T03:41:47;12.10;;;5.45;;
54539;SDS011;40438;52.992;18.604;2022-08-20T03:44:12;13.55;;;5.68;;
54539;SDS011;40438;52.992;18.604;2022-08-20T03:46:38;13.43;;;5.25;;
54539;SDS011;40438;52.992;18.604;2022-08-20T03:49:04;10.38;;;5.57;;
54539;SDS011;40438;52.992;18.604;2022-08-20T03:51:30;13.02;;;5.40;;
54539;SDS011;40438;52.992;18.604;2022-08-20T03:53:56;15.88;;;5.63;;
54539;SDS011;40438;52.992;18.604;2022-08-20T03:56:22;12.35;;;5.93;;
54539;SDS011;40438;52.992;18.604;2022-08-20T03:58:50;12.32;;;5.45;;
54539;SDS011;40438;52.992;18.604;2022-08-20T04:01:16;8.68;;;5.20;;
54539;SDS011;40438;52.992;18.604;2022-08-20T04:03:42;14.95;;;5.75;;
54539;SDS011;40438;52.992;18.604;2022-08-20T04:06:08;12.68;;;6.18;;
54539;SDS011;40438;52.992;18.604;2022-08-20T04:08:33;9.23;;;5.65;;
54539;SDS011;40438;52.992;18.604;2022-08-20T04:10:59;14.35;;;6.28;;
54539;SDS011;40438;52.992;18.604;2022-08-20T04:13:26;10.35;;;5.13;;
54539;SDS011;40438;52.992;18.604;2022-08-20T04:15:54;13.13;;;5.85;;
54539;SDS011;40438;52.992;18.604;2022-08-20T04:18:20;14.13;;;5.85;;
54539;SDS011;40438;52.992;18.604;2022-08-20T04:20:47;12.82;;;6.18;;
54539;SDS011;40438;52.992;18.604;2022-08-20T04:23:12;18.05;;;5.75;;
54539;SDS011;40438;52.992;18.604;2022-08-20T04:25:38;15.48;;;6.88;;
54539;SDS011;40438;52.992;18.604;2022-08-20T04:28:05;15.20;;;6.65;;
54539;SDS011;40438;52.992;18.604;2022-08-20T04:30:32;12.15;;;6.80;;
54539;SDS011;40438;52.992;18.604;2022-08-20T04:32:59;15.85;;;7.03;;
54539;SDS011;40438;52.992;18.604;2022-08-20T04:35:25;13.77;;;7.05;;
54539;SDS011;40438;52.992;18.604;2022-08-20T04:37:56;9.70;;;6.78;;
54539;SDS011;40438;52.992;18.604;2022-08-20T04:40:23;10.07;;;6.32;;
54539;SDS011;40438;52.992;18.604;2022-08-20T04:42:49;17.33;;;7.20;;
54539;SDS011;40438;52.992;18.604;2022-08-20T04:45:15;12.15;;;6.00;;
54539;SDS011;40438;52.992;18.604;2022-08-20T04:47:40;14.73;;;6.85;;
54539;SDS011;40438;52.992;18.604;2022-08-20T04:50:08;14.52;;;7.13;;
54539;SDS011;40438;52.992;18.604;2022-08-20T04:52:35;11.55;;;7.05;;
54539;SDS011;40438;52.992;18.604;2022-08-20T04:55:01;13.77;;;6.53;;
54539;SDS011;40438;52.992;18.604;2022-08-20T04:57:28;10.38;;;6.53;;
54539;SDS011;40438;52.992;18.604;2022-08-20T04:59:53;12.82;;;7.40;;
54539;SDS011;40438;52.992;18.604;2022-08-20T05:02:19;11.60;;;7.60;;
54539;SDS011;40438;52.992;18.604;2022-08-20T05:04:46;14.82;;;7.60;;
54539;SDS011;40438;52.992;18.604;2022-08-20T05:07:13;16.77;;;7.68;;
54539;SDS011;40438;52.992;18.604;2022-08-20T05:09:41;10.55;;;6.90;;
54539;SDS011;40438;52.992;18.604;2022-08-20T05:12:08;11.65;;;8.18;;
54539;SDS011;40438;52.992;18.604;2022-08-20T05:14:34;18.08;;;8.57;;
54539;SDS011;40438;52.992;18.604;2022-08-20T05:17:01;15.02;;;8.82;;
54539;SDS011;40438;52.992;18.604;2022-08-20T05:19:27;14.35;;;8.52;;
54539;SDS011;40438;52.992;18.604;2022-08-20T05:21:53;17.08;;;9.77;;
54539;SDS011;40438;52.992;18.604;2022-08-20T05:24:20;14.23;;;9.63;;
54539;SDS011;40438;52.992;18.604;2022-08-20T05:26:46;19.95;;;11.63;;
54539;SDS011;40438;52.992;18.604;2022-08-20T05:29:11;14.60;;;10.43;;
54539;SDS011;40438;52.992;18.604;2022-08-20T05:31:37;20.13;;;10.50;;
54539;SDS011;40438;52.992;18.604;2022-08-20T05:34:04;14.52;;;9.98;;
54539;SDS011;40438;52.992;18.604;2022-08-20T05:36:31;20.98;;;11.32;;
54539;SDS011;40438;52.992;18.604;2022-08-20T05:38:57;16.25;;;11.48;;
54539;SDS011;40438;52.992;18.604;2022-08-20T05:41:24;17.33;;;11.48;;
54539;SDS011;40438;52.992;18.604;2022-08-20T05:43:50;17.00;;;11.68;;
54539;SDS011;40438;52.992;18.604;2022-08-20T05:46:16;30.63;;;11.77;;
54539;SDS011;40438;52.992;18.604;2022-08-20T05:48:41;17.48;;;12.30;;
54539;SDS011;40438;52.992;18.604;2022-08-20T05:51:07;18.40;;;10.90;;
54539;SDS011;40438;52.992;18.604;2022-08-20T05:53:33;20.77;;;10.82;;
54539;SDS011;40438;52.992;18.604;2022-08-20T05:55:58;18.00;;;10.50;;
54539;SDS011;40438;52.992;18.604;2022-08-20T05:58:27;18.52;;;10.52;;
54539;SDS011;40438;52.992;18.604;2022-08-20T06:00:53;15.23;;;10.13;;
54539;SDS011;40438;52.992;18.604;2022-08-20T06:03:20;18.38;;;10.30;;
54539;SDS011;40438;52.992;18.604;2022-08-20T06:05:46;15.45;;;10.20;;
54539;SDS011;40438;52.992;18.604;2022-08-20T06:08:11;19.00;;;11.27;;
54539;SDS011;40438;52.992;18.604;2022-08-20T06:10:39;16.63;;;10.90;;
54539;SDS011;40438;52.992;18.604;2022-08-20T06:13:05;20.17;;;11.45;;
54539;SDS011;40438;52.992;18.604;2022-08-20T06:15:33;15.68;;;11.07;;
54539;SDS011;40438;52.992;18.604;2022-08-20T06:17:59;16.05;;;10.77;;
54539;SDS011;40438;52.992;18.604;2022-08-20T06:20:25;16.40;;;10.23;;
54539;SDS011;40438;52.992;18.604;2022-08-20T06:22:51;18.27;;;11.32;;
54539;SDS011;40438;52.992;18.604;2022-08-20T06:25:17;18.17;;;10.27;;
54539;SDS011;40438;52.992;18.604;2022-08-20T06:27:43;16.83;;;9.10;;
54539;SDS011;40438;52.992;18.604;2022-08-20T06:30:11;16.58;;;8.43;;
54539;SDS011;40438;52.992;18.604;2022-08-20T06:32:40;14.40;;;9.73;;
54539;SDS011;40438;52.992;18.604;2022-08-20T06:35:06;16.27;;;9.10;;
54539;SDS011;40438;52.992;18.604;2022-08-20T06:37:34;12.25;;;8.32;;
54539;SDS011;40438;52.992;18.604;2022-08-20T06:40:02;17.50;;;8.90;;
54539;SDS011;40438;52.992;18.604;2022-08-20T06:42:31;16.08;;;8.90;;
54539;SDS011;40438;52.992;18.604;2022-08-20T06:44:57;12.23;;;8.52;;
54539;SDS011;40438;52.992;18.604;2022-08-20T06:47:22;15.98;;;8.45;;
54539;SDS011;40438;52.992;18.604;2022-08-20T06:49:49;15.68;;;8.52;;
54539;SDS011;40438;52.992;18.604;2022-08-20T06:52:15;15.25;;;7.65;;
54539;SDS011;40438;52.992;18.604;2022-08-20T06:54:42;16.90;;;8.10;;
54539;SDS011;40438;52.992;18.604;2022-08-20T06:57:07;14.00;;;8.57;;
54539;SDS011;40438;52.992;18.604;2022-08-20T06:59:33;13.50;;;7.88;;
54539;SDS011;40438;52.992;18.604;2022-08-20T07:01:59;15.15;;;8.38;;
54539;SDS011;40438;52.992;18.604;2022-08-20T07:04:25;12.18;;;8.23;;
54539;SDS011;40438;52.992;18.604;2022-08-20T07:06:53;14.20;;;7.57;;
54539;SDS011;40438;52.992;18.604;2022-08-20T07:09:19;12.98;;;8.80;;
54539;SDS011;40438;52.992;18.604;2022-08-20T07:11:45;14.20;;;8.63;;
54539;SDS011;40438;52.992;18.604;2022-08-20T07:14:11;12.88;;;7.93;;
54539;SDS011;40438;52.992;18.604;2022-08-20T07:16:37;13.75;;;7.90;;
54539;SDS011;40438;52.992;18.604;2022-08-20T07:19:03;15.20;;;8.13;;
54539;SDS011;40438;52.992;18.604;2022-08-20T07:21:29;12.65;;;7.75;;
54539;SDS011;40438;52.992;18.604;2022-08-20T07:23:56;17.17;;;7.95;;
54539;SDS011;40438;52.992;18.604;2022-08-20T07:26:21;15.57;;;8.38;;
54539;SDS011;40438;52.992;18.604;2022-08-20T07:28:47;14.48;;;7.95;;
54539;SDS011;40438;52.992;18.604;2022-08-20T07:31:13;12.57;;;7.97;;
54539;SDS011;40438;52.992;18.604;2022-08-20T07:33:39;14.48;;;8.00;;
54539;SDS011;40438;52.992;18.604;2022-08-20T07:36:06;12.38;;;7.70;;
54539;SDS011;40438;52.992;18.604;2022-08-20T07:38:32;13.55;;;7.93;;
54539;SDS011;40438;52.992;18.604;2022-08-20T07:41:00;15.60;;;7.97;;
54539;SDS011;40438;52.992;18.604;2022-08-20T07:43:28;13.05;;;8.93;;
54539;SDS011;40438;52.992;18.604;2022-08-20T07:45:55;15.75;;;8.48;;
54539;SDS011;40438;52.992;18.604;2022-08-20T07:48:23;15.13;;;7.70;;
54539;SDS011;40438;52.992;18.604;2022-08-20T07:50:49;15.32;;;8.68;;
54539;SDS011;40438;52.992;18.604;2022-08-20T07:53:15;13.30;;;8.15;;
54539;SDS011;40438;52.992;18.604;2022-08-20T07:55:40;13.95;;;8.70;;
54539;SDS011;40438;52.992;18.604;2022-08-20T07:58:09;17.48;;;9.18;;
54539;SDS011;40438;52.992;18.604;2022-08-20T08:00:41;14.35;;;8.75;;
54539;SDS011;40438;52.992;18.604;2022-08-20T08:03:07;13.68;;;7.63;;
54539;SDS011;40438;52.992;18.604;2022-08-20T08:05:34;14.02;;;9.18;;
54539;SDS011;40438;52.992;18.604;2022-08-20T08:08:02;17.23;;;10.50;;
54539;SDS011;40438;52.992;18.604;2022-08-20T08:10:29;13.20;;;8.32;;
54539;SDS011;40438;52.992;18.604;2022-08-20T08:12:57;11.10;;;8.07;;
54539;SDS011;40438;52.992;18.604;2022-08-20T08:15:27;13.30;;;8.73;;
54539;SDS011;40438;52.992;18.604;2022-08-20T08:17:54;17.65;;;8.63;;
54539;SDS011;40438;52.992;18.604;2022-08-20T08:20:24;11.90;;;8.05;;
54539;SDS011;40438;52.992;18.604;2022-08-20T08:22:50;16.02;;;8.48;;
54539;SDS011;40438;52.992;18.604;2022-08-20T08:25:16;15.32;;;7.95;;
54539;SDS011;40438;52.992;18.604;2022-08-20T08:27:42;14.73;;;7.93;;
54539;SDS011;40438;52.992;18.604;2022-08-20T08:30:08;13.32;;;7.93;;
54539;SDS011;40438;52.992;18.604;2022-08-20T08:32:36;15.30;;;8.25;;
54539;SDS011;40438;52.992;18.604;2022-08-20T08:35:03;13.43;;;7.85;;
54539;SDS011;40438;52.992;18.604;2022-08-20T08:37:29;11.85;;;7.72;;
54539;SDS011;40438;52.992;18.604;2022-08-20T08:39:55;13.27;;;8.05;;
54539;SDS011;40438;52.992;18.604;2022-08-20T08:42:23;14.93;;;7.43;;
54539;SDS011;40438;52.992;18.604;2022-08-20T08:44:52;11.70;;;8.03;;
54539;SDS011;40438;52.992;18.604;2022-08-20T08:47:20;15.13;;;7.45;;
54539;SDS011;40438;52.992;18.604;2022-08-20T08:49:52;13.43;;;7.18;;
54539;SDS011;40438;52.992;18.604;2022-08-20T08:52:19;12.90;;;7.68;;
54539;SDS011;40438;52.992;18.604;2022-08-20T08:54:49;14.25;;;7.13;;
54539;SDS011;40438;52.992;18.604;2022-08-20T08:57:18;14.90;;;7.93;;
54539;SDS011;40438;52.992;18.604;2022-08-20T08:59:44;12.07;;;7.68;;
54539;SDS011;40438;52.992;18.604;2022-08-20T09:02:16;16.95;;;8.00;;
54539;SDS011;40438;52.992;18.604;2022-08-20T09:04:44;18.20;;;8.82;;
54539;SDS011;40438;52.992;18.604;2022-08-20T09:07:13;11.95;;;7.78;;
54539;SDS011;40438;52.992;18.604;2022-08-20T09:09:41;14.27;;;7.95;;
54539;SDS011;40438;52.992;18.604;2022-08-20T09:12:12;14.60;;;7.65;;
54539;SDS011;40438;52.992;18.604;2022-08-20T09:14:39;14.00;;;8.00;;
54539;SDS011;40438;52.992;18.604;2022-08-20T09:17:05;14.63;;;8.50;;
54539;SDS011;40438;52.992;18.604;2022-08-20T09:19:33;14.00;;;8.32;;
54539;SDS011;40438;52.992;18.604;2022-08-20T09:21:58;15.77;;;8.93;;
54539;SDS011;40438;52.992;18.604;2022-08-20T09:24:33;16.27;;;9.60;;
54539;SDS011;40438;52.992;18.604;2022-08-20T09:26:58;14.57;;;9.48;;
54539;SDS011;40438;52.992;18.604;2022-08-20T09:29:24;17.38;;;8.75;;
54539;SDS011;40438;52.992;18.604;2022-08-20T09:31:50;15.23;;;9.80;;
54539;SDS011;40438;52.992;18.604;2022-08-20T09:34:16;16.60;;;9.60;;
54539;SDS011;40438;52.992;18.604;2022-08-20T09:36:41;19.83;;;11.07;;
54539;SDS011;40438;52.992;18.604;2022-08-20T09:39:07;14.70;;;9.70;;
54539;SDS011;40438;52.992;18.604;2022-08-20T09:41:34;18.33;;;11.15;;
54539;SDS011;40438;52.992;18.604;2022-08-20T09:44:00;28.20;;;13.07;;
54539;SDS011;40438;52.992;18.604;2022-08-20T09:46:26;22.20;;;13.20;;
54539;SDS011;40438;52.992;18.604;2022-08-20T09:48:51;20.77;;;11.82;;
54539;SDS011;40438;52.992;18.604;2022-08-20T09:51:20;19.77;;;11.43;;
54539;SDS011;40438;52.992;18.604;2022-08-20T09:53:46;20.40;;;11.77;;
54539;SDS011;40438;52.992;18.604;2022-08-20T09:56:11;18.35;;;11.82;;
54539;SDS011;40438;52.992;18.604;2022-08-20T09:58:40;19.55;;;12.10;;
54539;SDS011;40438;52.992;18.604;2022-08-20T10:01:13;17.60;;;10.75;;
54539;SDS011;40438;52.992;18.604;2022-08-20T10:03:41;19.10;;;11.05;;
54539;SDS011;40438;52.992;18.604;2022-08-20T10:06:06;20.23;;;11.50;;
54539;SDS011;40438;52.992;18.604;2022-08-20T10:08:32;17.83;;;11.60;;
54539;SDS011;40438;52.992;18.604;2022-08-20T10:10:58;16.42;;;10.68;;
54539;SDS011;40438;52.992;18.604;2022-08-20T10:13:24;23.10;;;10.55;;
54539;SDS011;40438;52.992;18.604;2022-08-20T10:15:51;15.48;;;9.68;;
54539;SDS011;40438;52.992;18.604;2022-08-20T10:18:17;15.43;;;10.05;;
54539;SDS011;40438;52.992;18.604;2022-08-20T10:20:42;19.65;;;10.80;;
54539;SDS011;40438;52.992;18.604;2022-08-20T10:23:08;18.95;;;10.90;;
54539;SDS011;40438;52.992;18.604;2022-08-20T10:25:34;15.35;;;9.77;;
54539;SDS011;40438;52.992;18.604;2022-08-20T10:28:00;17.00;;;10.05;;
54539;SDS011;40438;52.992;18.604;2022-08-20T10:30:25;12.50;;;10.50;;
54539;SDS011;40438;52.992;18.604;2022-08-20T10:32:52;16.13;;;10.02;;
54539;SDS011;40438;52.992;18.604;2022-08-20T10:35:18;16.17;;;10.13;;
54539;SDS011;40438;52.992;18.604;2022-08-20T10:37:44;14.20;;;10.02;;
54539;SDS011;40438;52.992;18.604;2022-08-20T10:40:10;13.15;;;9.10;;
54539;SDS011;40438;52.992;18.604;2022-08-20T10:42:37;13.80;;;9.27;;
54539;SDS011;40438;52.992;18.604;2022-08-20T10:45:03;16.00;;;8.05;;
54539;SDS011;40438;52.992;18.604;2022-08-20T10:47:30;17.05;;;7.65;;
54539;SDS011;40438;52.992;18.604;2022-08-20T10:49:58;14.00;;;6.97;;
54539;SDS011;40438;52.992;18.604;2022-08-20T10:52:26;12.88;;;8.38;;
54539;SDS011;40438;52.992;18.604;2022-08-20T10:54:52;13.13;;;7.50;;
54539;SDS011;40438;52.992;18.604;2022-08-20T10:57:20;14.90;;;7.28;;
54539;SDS011;40438;52.992;18.604;2022-08-20T10:59:48;9.68;;;7.10;;
54539;SDS011;40438;52.992;18.604;2022-08-20T11:02:15;13.55;;;7.53;;
54539;SDS011;40438;52.992;18.604;2022-08-20T11:04:41;16.98;;;8.15;;
54539;SDS011;40438;52.992;18.604;2022-08-20T11:07:12;10.88;;;8.07;;
54539;SDS011;40438;52.992;18.604;2022-08-20T11:09:39;16.52;;;7.75;;
54539;SDS011;40438;52.992;18.604;2022-08-20T11:12:05;14.02;;;7.75;;
54539;SDS011;40438;52.992;18.604;2022-08-20T11:14:31;12.68;;;7.38;;
54539;SDS011;40438;52.992;18.604;2022-08-20T11:16:57;12.45;;;7.00;;
54539;SDS011;40438;52.992;18.604;2022-08-20T11:19:23;12.95;;;6.90;;
54539;SDS011;40438;52.992;18.604;2022-08-20T11:21:49;14.95;;;7.07;;
54539;SDS011;40438;52.992;18.604;2022-08-20T11:24:16;16.65;;;7.72;;
54539;SDS011;40438;52.992;18.604;2022-08-20T11:26:41;16.05;;;8.02;;
54539;SDS011;40438;52.992;18.604;2022-08-20T11:29:07;12.57;;;7.00;;
54539;SDS011;40438;52.992;18.604;2022-08-20T11:31:33;16.90;;;8.02;;
54539;SDS011;40438;52.992;18.604;2022-08-20T11:33:59;14.43;;;7.60;;
54539;SDS011;40438;52.992;18.604;2022-08-20T11:36:25;15.20;;;8.23;;
54539;SDS011;40438;52.992;18.604;2022-08-20T11:38:50;11.63;;;7.65;;
54539;SDS011;40438;52.992;18.604;2022-08-20T11:41:17;14.27;;;7.72;;
54539;SDS011;40438;52.992;18.604;2022-08-20T11:43:43;15.30;;;9.10;;
54539;SDS011;40438;52.992;18.604;2022-08-20T11:46:09;13.43;;;7.25;;
54539;SDS011;40438;52.992;18.604;2022-08-20T11:48:35;11.75;;;7.57;;
54539;SDS011;40438;52.992;18.604;2022-08-20T11:51:00;10.40;;;6.63;;
54539;SDS011;40438;52.992;18.604;2022-08-20T11:53:26;12.73;;;7.05;;
54539;SDS011;40438;52.992;18.604;2022-08-20T11:55:52;15.85;;;6.70;;
54539;SDS011;40438;52.992;18.604;2022-08-20T11:58:19;15.45;;;6.68;;
54539;SDS011;40438;52.992;18.604;2022-08-20T12:00:44;14.10;;;6.80;;
54539;SDS011;40438;52.992;18.604;2022-08-20T12:03:10;14.93;;;7.20;;
54539;SDS011;40438;52.992;18.604;2022-08-20T12:05:36;11.80;;;6.72;;
54539;SDS011;40438;52.992;18.604;2022-08-20T12:08:03;14.65;;;6.80;;
54539;SDS011;40438;52.992;18.604;2022-08-20T12:10:30;11.02;;;6.93;;
54539;SDS011;40438;52.992;18.604;2022-08-20T12:12:56;11.80;;;7.07;;
54539;SDS011;40438;52.992;18.604;2022-08-20T12:15:23;11.30;;;5.80;;
54539;SDS011;40438;52.992;18.604;2022-08-20T12:17:50;12.20;;;6.60;;
54539;SDS011;40438;52.992;18.604;2022-08-20T12:20:16;16.20;;;6.78;;
54539;SDS011;40438;52.992;18.604;2022-08-20T12:22:41;12.10;;;6.57;;
54539;SDS011;40438;52.992;18.604;2022-08-20T12:25:07;16.63;;;7.20;;
54539;SDS011;40438;52.992;18.604;2022-08-20T12:27:34;13.55;;;6.35;;
54539;SDS011;40438;52.992;18.604;2022-08-20T12:30:02;11.27;;;6.18;;
54539;SDS011;40438;52.992;18.604;2022-08-20T12:32:31;13.25;;;5.70;;
54539;SDS011;40438;52.992;18.604;2022-08-20T12:34:57;9.45;;;4.70;;
54539;SDS011;40438;52.992;18.604;2022-08-20T12:37:24;10.98;;;5.30;;
54539;SDS011;40438;52.992;18.604;2022-08-20T12:39:53;15.35;;;4.40;;
54539;SDS011;40438;52.992;18.604;2022-08-20T12:42:21;12.90;;;4.72;;
54539;SDS011;40438;52.992;18.604;2022-08-20T12:44:47;14.30;;;4.38;;
54539;SDS011;40438;52.992;18.604;2022-08-20T12:47:13;9.23;;;4.97;;
54539;SDS011;40438;52.992;18.604;2022-08-20T12:49:42;9.10;;;4.60;;
54539;SDS011;40438;52.992;18.604;2022-08-20T12:52:10;12.80;;;4.13;;
54539;SDS011;40438;52.992;18.604;2022-08-20T12:54:36;6.85;;;3.83;;
54539;SDS011;40438;52.992;18.604;2022-08-20T12:57:02;12.20;;;4.82;;
54539;SDS011;40438;52.992;18.604;2022-08-20T12:59:29;9.82;;;4.32;;
54539;SDS011;40438;52.992;18.604;2022-08-20T13:01:55;11.90;;;4.28;;
54539;SDS011;40438;52.992;18.604;2022-08-20T13:04:21;9.77;;;3.80;;
54539;SDS011;40438;52.992;18.604;2022-08-20T13:06:48;10.75;;;4.10;;
54539;SDS011;40438;52.992;18.604;2022-08-20T13:09:14;11.50;;;4.15;;
54539;SDS011;40438;52.992;18.604;2022-08-20T13:11:41;7.03;;;3.80;;
54539;SDS011;40438;52.992;18.604;2022-08-20T13:14:07;9.68;;;3.25;;
54539;SDS011;40438;52.992;18.604;2022-08-20T13:16:32;8.68;;;3.75;;
54539;SDS011;40438;52.992;18.604;2022-08-20T13:18:58;7.68;;;3.80;;
54539;SDS011;40438;52.992;18.604;2022-08-20T13:21:24;9.95;;;3.75;;
54539;SDS011;40438;52.992;18.604;2022-08-20T13:23:51;9.52;;;3.85;;
54539;SDS011;40438;52.992;18.604;2022-08-20T13:26:17;8.10;;;3.50;;
54539;SDS011;40438;52.992;18.604;2022-08-20T13:28:42;9.73;;;3.70;;
54539;SDS011;40438;52.992;18.604;2022-08-20T13:31:08;15.00;;;4.18;;
54539;SDS011;40438;52.992;18.604;2022-08-20T13:33:34;12.57;;;3.47;;
54539;SDS011;40438;52.992;18.604;2022-08-20T13:36:00;10.73;;;3.70;;
54539;SDS011;40438;52.992;18.604;2022-08-20T13:38:25;8.23;;;3.95;;
54539;SDS011;40438;52.992;18.604;2022-08-20T13:40:53;11.63;;;4.22;;
54539;SDS011;40438;52.992;18.604;2022-08-20T13:43:18;7.05;;;3.97;;
54539;SDS011;40438;52.992;18.604;2022-08-20T13:45:44;7.25;;;3.85;;
54539;SDS011;40438;52.992;18.604;2022-08-20T13:48:10;9.15;;;4.30;;
54539;SDS011;40438;52.992;18.604;2022-08-20T13:50:36;10.73;;;4.65;;
54539;SDS011;40438;52.992;18.604;2022-08-20T13:53:01;12.18;;;4.25;;
54539;SDS011;40438;52.992;18.604;2022-08-20T13:55:27;8.48;;;4.13;;
54539;SDS011;40438;52.992;18.604;2022-08-20T13:57:55;9.00;;;4.35;;
54539;SDS011;40438;52.992;18.604;2022-08-20T14:00:22;9.27;;;4.60;;
54539;SDS011;40438;52.992;18.604;2022-08-20T14:02:54;10.50;;;4.50;;
54539;SDS011;40438;52.992;18.604;2022-08-20T14:05:19;12.13;;;4.53;;
54539;SDS011;40438;52.992;18.604;2022-08-20T14:07:45;11.32;;;4.68;;
54539;SDS011;40438;52.992;18.604;2022-08-20T14:10:13;10.02;;;4.45;;
54539;SDS011;40438;52.992;18.604;2022-08-20T14:12:41;9.52;;;4.45;;
54539;SDS011;40438;52.992;18.604;2022-08-20T14:15:09;10.13;;;5.28;;
54539;SDS011;40438;52.992;18.604;2022-08-20T14:17:36;9.38;;;5.10;;
54539;SDS011;40438;52.992;18.604;2022-08-20T14:20:04;8.02;;;4.22;;